AFL855 UUWW-UWKD
Flight info
| Callsign | AFL855 |
|---|---|
| Flight time | N/A |
| Altitude | 33000 |
| Route | KOGOM L94 EKPIR M864 INKEB L94 UNORO T788 KOROM |
| Aircraft | T154/M-SDFGIRY/S |
Departure
| Time | 2026-05-07 17:14 |
|---|---|
| Airport | Vnukovo International Airport (UUWW) |
Arrival
| Time | N/A |
|---|---|
| Airport | Kazan International Airport (UWKD) |
| Time | Latitude | Longitude | Altitude | Speed | Heading |
|---|---|---|---|---|---|
| 2026-05-07 15:59 | 55.60013 | 37.27996 | 697 ft | 0 kts | 19° |
| 2026-05-07 16:53 | 55.60013 | 37.27997 | 697 ft | 0 kts | 19° |
| 2026-05-07 17:01 | 55.60014 | 37.27997 | 697 ft | 0 kts | 19° |
| 2026-05-07 17:03 | 55.60016 | 37.27998 | 697 ft | 1 kts | 19° |
| 2026-05-07 17:03 | 55.60040 | 37.28014 | 697 ft | 6 kts | 22° |
| 2026-05-07 17:03 | 55.60070 | 37.28068 | 697 ft | 6 kts | 72° |
| 2026-05-07 17:03 | 55.60075 | 37.28157 | 697 ft | 7 kts | 86° |
| 2026-05-07 17:04 | 55.60078 | 37.28231 | 697 ft | 7 kts | 86° |
| 2026-05-07 17:04 | 55.60077 | 37.28309 | 697 ft | 7 kts | 111° |
| 2026-05-07 17:04 | 55.60039 | 37.28349 | 697 ft | 6 kts | 175° |
| 2026-05-07 17:04 | 55.59992 | 37.28329 | 697 ft | 7 kts | 202° |
| 2026-05-07 17:05 | 55.59940 | 37.28332 | 697 ft | 8 kts | 147° |
| 2026-05-07 17:05 | 55.59894 | 37.28390 | 697 ft | 8 kts | 148° |
| 2026-05-07 17:05 | 55.59836 | 37.28387 | 697 ft | 9 kts | 207° |
| 2026-05-07 17:05 | 55.59787 | 37.28326 | 697 ft | 7 kts | 217° |
| 2026-05-07 17:06 | 55.59745 | 37.28267 | 697 ft | 8 kts | 218° |
| 2026-05-07 17:06 | 55.59697 | 37.28200 | 697 ft | 10 kts | 218° |
| 2026-05-07 17:06 | 55.59640 | 37.28120 | 697 ft | 11 kts | 218° |
| 2026-05-07 17:06 | 55.59578 | 37.28065 | 697 ft | 11 kts | 187° |
| 2026-05-07 17:07 | 55.59501 | 37.28097 | 697 ft | 11 kts | 158° |
| 2026-05-07 17:07 | 55.59423 | 37.28153 | 697 ft | 13 kts | 158° |
| 2026-05-07 17:07 | 55.59338 | 37.28212 | 697 ft | 11 kts | 160° |
| 2026-05-07 17:07 | 55.59274 | 37.28154 | 697 ft | 12 kts | 242° |
| 2026-05-07 17:08 | 55.59239 | 37.28006 | 697 ft | 14 kts | 249° |
| 2026-05-07 17:08 | 55.59202 | 37.27837 | 697 ft | 15 kts | 246° |
| 2026-05-07 17:08 | 55.59159 | 37.27653 | 697 ft | 17 kts | 248° |
| 2026-05-07 17:08 | 55.59117 | 37.27467 | 697 ft | 16 kts | 248° |
| 2026-05-07 17:09 | 55.59074 | 37.27270 | 697 ft | 18 kts | 248° |
| 2026-05-07 17:09 | 55.59023 | 37.27051 | 697 ft | 19 kts | 248° |
| 2026-05-07 17:09 | 55.58970 | 37.26815 | 697 ft | 20 kts | 248° |
| 2026-05-07 17:09 | 55.58915 | 37.26570 | 697 ft | 21 kts | 248° |
| 2026-05-07 17:10 | 55.58860 | 37.26328 | 697 ft | 20 kts | 248° |
| 2026-05-07 17:10 | 55.58824 | 37.26168 | 697 ft | 10 kts | 248° |
| 2026-05-07 17:10 | 55.58795 | 37.26036 | 697 ft | 12 kts | 248° |
| 2026-05-07 17:10 | 55.58798 | 37.25909 | 697 ft | 11 kts | 326° |
| 2026-05-07 17:11 | 55.58861 | 37.25919 | 697 ft | 1 kts | 21° |
| 2026-05-07 17:11 | 55.58864 | 37.25921 | 697 ft | 0 kts | 21° |
| 2026-05-07 17:13 | 55.58875 | 37.25928 | 697 ft | 10 kts | 21° |
| 2026-05-07 17:13 | 55.59269 | 37.26230 | 698 ft | 91 kts | 22° |
| 2026-05-07 17:14 | 55.62677 | 37.29009 | 1680 ft | 175 kts | 27° |
| 2026-05-07 17:14 | 55.63721 | 37.29993 | 2098 ft | 183 kts | 27° |
| 2026-05-07 17:14 | 55.64779 | 37.30957 | 2518 ft | 191 kts | 28° |
| 2026-05-07 17:15 | 55.66668 | 37.34824 | 3270 ft | 241 kts | 69° |
| 2026-05-07 17:15 | 55.66990 | 37.37500 | 3723 ft | 262 kts | 88° |
| 2026-05-07 17:16 | 55.64444 | 37.45250 | 5047 ft | 320 kts | 155° |
| 2026-05-07 17:16 | 55.62391 | 37.46313 | 5580 ft | 336 kts | 166° |